C969 KPHX-KSDL
Flight info
| Callsign | C969 |
|---|---|
| Flight time | 0h 7m |
| Altitude | 5000 |
| Route | PXR |
| Aircraft | C172/L-SFG/C |
Departure
| Time | 2026-05-05 01:08 |
|---|---|
| Airport | Phoenix Sky Harbor International Airport (KPHX) |
Arrival
| Time | 2026-05-05 01:16 |
|---|---|
| Airport | Scottsdale Airport (KSDL) |
| Time | Latitude | Longitude | Altitude | Speed | Heading |
|---|---|---|---|---|---|
| 2026-05-05 00:58 | 33.44226 | -112.02155 | 1120 ft | 0 kts | 144° |
| 2026-05-05 01:01 | 33.44223 | -112.02147 | 1120 ft | 5 kts | 96° |
| 2026-05-05 01:01 | 33.44197 | -112.02091 | 1120 ft | 12 kts | 94° |
| 2026-05-05 01:01 | 33.44195 | -112.01961 | 1124 ft | 19 kts | 91° |
| 2026-05-05 01:02 | 33.44194 | -112.01783 | 1125 ft | 22 kts | 88° |
| 2026-05-05 01:02 | 33.44193 | -112.01592 | 1125 ft | 24 kts | 90° |
| 2026-05-05 01:02 | 33.44194 | -112.01402 | 1126 ft | 21 kts | 90° |
| 2026-05-05 01:02 | 33.44193 | -112.01218 | 1126 ft | 26 kts | 90° |
| 2026-05-05 01:03 | 33.44195 | -112.01002 | 1126 ft | 25 kts | 90° |
| 2026-05-05 01:03 | 33.44195 | -112.00807 | 1125 ft | 22 kts | 90° |
| 2026-05-05 01:03 | 33.44194 | -112.00643 | 1125 ft | 18 kts | 89° |
| 2026-05-05 01:03 | 33.44193 | -112.00465 | 1125 ft | 23 kts | 91° |
| 2026-05-05 01:04 | 33.44193 | -112.00259 | 1126 ft | 26 kts | 90° |
| 2026-05-05 01:04 | 33.44194 | -111.99840 | 1128 ft | 26 kts | 90° |
| 2026-05-05 01:04 | 33.44192 | -111.99599 | 1128 ft | 28 kts | 90° |
| 2026-05-05 01:05 | 33.44192 | -111.99391 | 1129 ft | 23 kts | 90° |
| 2026-05-05 01:05 | 33.44175 | -111.99238 | 1132 ft | 11 kts | 139° |
| 2026-05-05 01:05 | 33.44169 | -111.99234 | 1131 ft | 0 kts | 155° |
| 2026-05-05 01:06 | 33.44166 | -111.99232 | 1131 ft | 1 kts | 158° |
| 2026-05-05 01:07 | 33.44133 | -111.99227 | 1131 ft | 11 kts | 180° |
| 2026-05-05 01:07 | 33.44084 | -111.99308 | 1132 ft | 28 kts | 269° |
| 2026-05-05 01:07 | 33.44084 | -111.99745 | 1146 ft | 70 kts | 270° |
| 2026-05-05 01:07 | 33.44135 | -112.00333 | 1337 ft | 72 kts | 292° |
| 2026-05-05 01:08 | 33.44494 | -112.00723 | 1552 ft | 71 kts | 338° |
| 2026-05-05 01:08 | 33.45006 | -112.00810 | 1713 ft | 80 kts | 8° |
| 2026-05-05 01:08 | 33.45518 | -112.00570 | 1963 ft | 75 kts | 21° |
| 2026-05-05 01:08 | 33.45998 | -112.00319 | 2152 ft | 79 kts | 24° |
| 2026-05-05 01:09 | 33.46516 | -112.00025 | 2318 ft | 86 kts | 24° |
| 2026-05-05 01:09 | 33.47071 | -111.99714 | 2515 ft | 89 kts | 24° |
| 2026-05-05 01:09 | 33.47633 | -111.99407 | 2724 ft | 91 kts | 24° |
| 2026-05-05 01:09 | 33.48213 | -111.99082 | 2896 ft | 95 kts | 24° |
| 2026-05-05 01:10 | 33.48812 | -111.98737 | 3099 ft | 95 kts | 25° |
| 2026-05-05 01:10 | 33.49453 | -111.98372 | 3124 ft | 108 kts | 25° |
| 2026-05-05 01:10 | 33.50132 | -111.97968 | 3139 ft | 109 kts | 26° |
| 2026-05-05 01:10 | 33.50807 | -111.97566 | 3157 ft | 109 kts | 25° |
| 2026-05-05 01:11 | 33.51487 | -111.97197 | 3133 ft | 105 kts | 17° |
| 2026-05-05 01:11 | 33.52173 | -111.96995 | 3134 ft | 98 kts | 11° |
| 2026-05-05 01:11 | 33.52821 | -111.96842 | 3120 ft | 98 kts | 9° |
| 2026-05-05 01:11 | 33.53549 | -111.96718 | 3130 ft | 107 kts | 6° |
| 2026-05-05 01:12 | 33.54279 | -111.96648 | 3102 ft | 106 kts | 360° |
| 2026-05-05 01:12 | 33.55011 | -111.96675 | 3096 ft | 103 kts | 353° |
| 2026-05-05 01:12 | 33.55724 | -111.96814 | 2936 ft | 103 kts | 350° |
| 2026-05-05 01:12 | 33.56411 | -111.96863 | 2838 ft | 98 kts | 5° |
| 2026-05-05 01:13 | 33.57066 | -111.96642 | 2734 ft | 98 kts | 22° |
| 2026-05-05 01:13 | 33.57658 | -111.96252 | 2643 ft | 97 kts | 32° |
| 2026-05-05 01:13 | 33.58185 | -111.95749 | 2548 ft | 97 kts | 42° |
| 2026-05-05 01:13 | 33.58673 | -111.95173 | 2425 ft | 99 kts | 45° |
| 2026-05-05 01:14 | 33.59104 | -111.94557 | 2360 ft | 96 kts | 60° |
| 2026-05-05 01:14 | 33.59485 | -111.93948 | 2299 ft | 91 kts | 36° |
| 2026-05-05 01:14 | 33.60014 | -111.93528 | 2077 ft | 89 kts | 33° |
| 2026-05-05 01:14 | 33.60469 | -111.93108 | 1897 ft | 77 kts | 39° |
| 2026-05-05 01:15 | 33.60853 | -111.92699 | 1718 ft | 71 kts | 43° |
| 2026-05-05 01:15 | 33.61229 | -111.92276 | 1616 ft | 78 kts | 44° |
| 2026-05-05 01:15 | 33.61614 | -111.91827 | 1517 ft | 75 kts | 44° |
| 2026-05-05 01:15 | 33.61971 | -111.91418 | 1463 ft | 63 kts | 44° |
| 2026-05-05 01:16 | 33.62172 | -111.91186 | 1467 ft | 22 kts | 44° |
| 2026-05-05 01:16 | 33.62178 | -111.91110 | 1471 ft | 8 kts | 131° |
| 2026-05-05 01:16 | 33.62175 | -111.91107 | 1471 ft | 0 kts | 131° |
| 2026-05-05 01:17 | 33.62180 | -111.91067 | 1472 ft | 10 kts | 45° |
| 2026-05-05 01:17 | 33.62242 | -111.90995 | 1472 ft | 14 kts | 44° |
| 2026-05-05 01:17 | 33.62309 | -111.90915 | 1481 ft | 12 kts | 43° |
| 2026-05-05 01:18 | 33.62356 | -111.90862 | 1483 ft | 7 kts | 45° |
| 2026-05-05 01:18 | 33.62420 | -111.90789 | 1485 ft | 20 kts | 43° |
| 2026-05-05 01:18 | 33.62528 | -111.90665 | 1485 ft | 19 kts | 45° |
| 2026-05-05 01:18 | 33.62582 | -111.90557 | 1485 ft | 14 kts | 118° |
| 2026-05-05 01:19 | 33.62566 | -111.90484 | 1488 ft | 0 kts | 96° |